createdAt,value
2022-07-29T00:10:39.213Z,11.513577467940324
2022-07-29T00:25:57.183Z,11.727188043201847
2022-07-29T00:41:14.116Z,11.565202425883243
2022-07-29T00:56:30.108Z,11.365359847192556
2022-07-29T01:11:46.092Z,12.221924535844174
2022-07-29T01:27:03.047Z,11.674143910518644
2022-07-29T01:42:19.025Z,11.683186470655395
2022-07-29T01:57:35.958Z,12.180381523052318
2022-07-29T02:12:52.953Z,12.097606847419144
2022-07-29T02:28:10.894Z,12.088409516559825
2022-07-29T02:43:26.904Z,12.710133931604895
2022-07-29T02:58:42.832Z,12.378050541908593
2022-07-29T03:13:58.831Z,12.432276230229897
2022-07-29T03:29:15.768Z,12.518426289822
2022-07-29T03:44:31.779Z,12.608902911803474
2022-07-29T03:59:48.714Z,12.690179499260555
2022-07-29T04:15:05.710Z,12.759810776450092
2022-07-29T04:30:22.643Z,12.748948094327819
2022-07-29T04:45:38.645Z,12.413685485142558
2022-07-29T05:00:54.589Z,12.862619129679455
2022-07-29T05:01:39.509Z,12.862619129679455
2022-07-29T05:16:11.700Z,12.53414387933856
2022-07-29T05:31:28.583Z,12.197484137776238
2022-07-29T05:46:45.606Z,12.278625477118
2022-07-29T06:02:02.452Z,12.07404904572053
2022-07-29T06:17:19.426Z,11.772848498406722
2022-07-29T06:32:38.956Z,12.83434852542662
2022-07-29T06:47:52.353Z,12.520652789416264
2022-07-29T07:03:08.356Z,12.07404904572053
2022-07-29T07:18:24.283Z,11.937935454252996
2022-07-29T07:33:41.261Z,11.737608997146987
2022-07-29T07:48:58.304Z,11.956116162767096
2022-07-29T08:04:15.583Z,12.698877838303261
2022-07-29T08:19:30.171Z,13.007827927810443
2022-07-29T08:34:46.127Z,12.833568362402
2022-07-29T08:49:33.934Z,14.903374989468968
2022-07-29T09:04:50.067Z,18.700497835432596
2022-07-29T09:20:07.033Z,19.320000000000004
2022-07-29T09:35:24.049Z,18.853418221302316
2022-07-29T09:50:40.997Z,19.220000000000006
2022-07-29T10:05:57.949Z,19.889999999999997
2022-07-29T10:21:35.317Z,19.99
2022-07-29T10:36:30.888Z,19.85
2022-07-29T10:51:46.856Z,19.690000000000005
2022-07-29T11:07:03.855Z,19.690000000000005
2022-07-29T11:22:19.831Z,19.800000000000004
2022-07-29T11:37:42.626Z,19.73
2022-07-29T11:52:53.761Z,19.65
2022-07-29T12:08:12.669Z,20.049999999999997
2022-07-29T12:23:29.417Z,20.460000000000004
2022-07-29T12:38:42.673Z,18.55365962601343
2022-07-29T12:53:58.638Z,18.275803874334105
2022-07-29T13:09:14.609Z,18.762516857198865
2022-07-29T13:24:33.586Z,17.63448057348319
2022-07-29T13:39:53.157Z,17.561049432481344
2022-07-29T13:55:05.503Z,18.739378220727417
2022-07-29T14:10:21.480Z,17.77265541108356
2022-07-29T14:25:38.436Z,18.67696226251107
2022-07-29T14:40:55.404Z,17.857129949834167
2022-07-29T14:56:35.641Z,17.892306488122273
2022-07-29T15:11:29.344Z,17.481206314852056
2022-07-29T15:26:46.308Z,17.23396110828288
2022-07-29T15:42:02.531Z,17.089622768192815
2022-07-29T15:57:18.209Z,17.09892659589225
2022-07-29T16:12:34.215Z,16.4221979867542
2022-07-29T16:27:51.151Z,16.57022109855961
2022-07-29T16:43:08.150Z,16.549482941400584
2022-07-29T16:58:25.077Z,15.400520692437864
2022-07-29T17:13:41.084Z,15.731559320870293
2022-07-29T17:28:58.020Z,15.894810067791685
2022-07-29T17:44:14.022Z,15.102116897399956
2022-07-29T17:59:29.958Z,14.494338520290992
2022-07-29T18:14:45.966Z,15.208660764678395
2022-07-29T18:30:04.542Z,15.59999226654703
2022-07-29T18:45:20.019Z,15.9527809511756
2022-07-29T19:00:36.828Z,16.0899387237359
2022-07-29T19:15:52.887Z,16.105193661126556
2022-07-29T19:31:09.864Z,16.02052159837395
2022-07-29T19:46:25.877Z,15.978043230988007
2022-07-29T20:01:41.736Z,15.858904650168567
2022-07-29T20:16:57.713Z,15.984946762937163
2022-07-29T20:32:15.665Z,16.040843262674834
2022-07-29T20:47:32.611Z,16.451281701488487
2022-07-29T21:02:49.678Z,16.87894631412594
2022-07-29T21:18:05.546Z,17.170746778188697
2022-07-29T21:33:22.591Z,17.134487835477078
2022-07-29T21:48:43.870Z,17.165332575485753
2022-07-29T22:03:54.492Z,17.413518308643805
2022-07-29T22:19:11.418Z,17.491308751826626
2022-07-29T22:34:34.118Z,17.572477713715582
2022-07-29T22:49:46.358Z,17.682385395360445
2022-07-29T23:05:02.328Z,17.70424007188654
2022-07-29T23:20:18.304Z,17.71710709426516
2022-07-29T23:35:35.265Z,17.85095943929889
2022-07-29T23:50:51.240Z,17.76767317254805
